sensor_id;sensor_type;location;lat;lon;timestamp;P1;durP1;ratioP1;P2;durP2;ratioP2
11141;SDS011;5625;50.122;19.864;2023-07-20T00:01:17;6.93;;;4.17;;
11141;SDS011;5625;50.122;19.864;2023-07-20T00:03:45;6.73;;;4.60;;
11141;SDS011;5625;50.122;19.864;2023-07-20T00:06:21;7.87;;;4.30;;
11141;SDS011;5625;50.122;19.864;2023-07-20T00:08:50;5.43;;;4.30;;
11141;SDS011;5625;50.122;19.864;2023-07-20T00:11:18;7.43;;;4.07;;
11141;SDS011;5625;50.122;19.864;2023-07-20T00:13:46;5.40;;;4.13;;
11141;SDS011;5625;50.122;19.864;2023-07-20T00:16:15;7.63;;;4.47;;
11141;SDS011;5625;50.122;19.864;2023-07-20T00:18:47;6.47;;;4.37;;
11141;SDS011;5625;50.122;19.864;2023-07-20T00:21:15;5.83;;;4.10;;
11141;SDS011;5625;50.122;19.864;2023-07-20T00:23:43;5.67;;;4.40;;
11141;SDS011;5625;50.122;19.864;2023-07-20T00:26:11;4.73;;;4.17;;
11141;SDS011;5625;50.122;19.864;2023-07-20T00:28:39;6.40;;;4.07;;
11141;SDS011;5625;50.122;19.864;2023-07-20T00:31:07;7.70;;;4.53;;
11141;SDS011;5625;50.122;19.864;2023-07-20T00:33:37;6.37;;;4.67;;
11141;SDS011;5625;50.122;19.864;2023-07-20T00:36:05;5.20;;;3.90;;
11141;SDS011;5625;50.122;19.864;2023-07-20T00:38:33;4.60;;;4.20;;
11141;SDS011;5625;50.122;19.864;2023-07-20T00:41:01;7.40;;;4.47;;
11141;SDS011;5625;50.122;19.864;2023-07-20T00:43:30;7.53;;;4.30;;
11141;SDS011;5625;50.122;19.864;2023-07-20T00:45:58;6.07;;;4.20;;
11141;SDS011;5625;50.122;19.864;2023-07-20T00:48:27;7.60;;;4.23;;
11141;SDS011;5625;50.122;19.864;2023-07-20T00:50:56;6.27;;;4.30;;
11141;SDS011;5625;50.122;19.864;2023-07-20T00:53:26;6.07;;;4.10;;
11141;SDS011;5625;50.122;19.864;2023-07-20T00:55:54;5.07;;;4.03;;
11141;SDS011;5625;50.122;19.864;2023-07-20T00:58:23;5.90;;;4.20;;
11141;SDS011;5625;50.122;19.864;2023-07-20T01:00:51;7.30;;;4.13;;
11141;SDS011;5625;50.122;19.864;2023-07-20T01:03:19;7.00;;;4.40;;
11141;SDS011;5625;50.122;19.864;2023-07-20T01:05:48;5.27;;;4.10;;
11141;SDS011;5625;50.122;19.864;2023-07-20T01:08:24;5.57;;;4.40;;
11141;SDS011;5625;50.122;19.864;2023-07-20T01:11:02;5.33;;;4.10;;
11141;SDS011;5625;50.122;19.864;2023-07-20T01:13:33;5.77;;;4.10;;
11141;SDS011;5625;50.122;19.864;2023-07-20T01:16:02;4.83;;;3.87;;
11141;SDS011;5625;50.122;19.864;2023-07-20T01:18:30;4.97;;;4.17;;
11141;SDS011;5625;50.122;19.864;2023-07-20T01:20:59;4.53;;;4.03;;
11141;SDS011;5625;50.122;19.864;2023-07-20T01:26:50;6.83;;;4.43;;
11141;SDS011;5625;50.122;19.864;2023-07-20T01:30:03;5.50;;;4.17;;
11141;SDS011;5625;50.122;19.864;2023-07-20T01:32:40;6.97;;;3.80;;
11141;SDS011;5625;50.122;19.864;2023-07-20T01:35:10;5.60;;;4.23;;
11141;SDS011;5625;50.122;19.864;2023-07-20T01:37:42;5.53;;;4.33;;
11141;SDS011;5625;50.122;19.864;2023-07-20T01:40:12;6.87;;;4.50;;
11141;SDS011;5625;50.122;19.864;2023-07-20T01:42:43;6.97;;;4.83;;
11141;SDS011;5625;50.122;19.864;2023-07-20T01:45:12;9.00;;;5.10;;
11141;SDS011;5625;50.122;19.864;2023-07-20T01:47:42;7.63;;;5.47;;
11141;SDS011;5625;50.122;19.864;2023-07-20T01:50:10;9.60;;;5.80;;
11141;SDS011;5625;50.122;19.864;2023-07-20T01:52:38;8.53;;;5.33;;
11141;SDS011;5625;50.122;19.864;2023-07-20T01:55:06;8.13;;;5.20;;
11141;SDS011;5625;50.122;19.864;2023-07-20T01:57:35;6.40;;;5.77;;
11141;SDS011;5625;50.122;19.864;2023-07-20T02:00:04;6.70;;;5.03;;
11141;SDS011;5625;50.122;19.864;2023-07-20T02:02:35;8.60;;;5.40;;
11141;SDS011;5625;50.122;19.864;2023-07-20T02:05:04;5.60;;;5.10;;
11141;SDS011;5625;50.122;19.864;2023-07-20T02:07:33;6.13;;;4.50;;
11141;SDS011;5625;50.122;19.864;2023-07-20T02:10:01;7.53;;;5.20;;
11141;SDS011;5625;50.122;19.864;2023-07-20T02:12:32;6.83;;;5.20;;
11141;SDS011;5625;50.122;19.864;2023-07-20T02:15:00;8.50;;;4.93;;
11141;SDS011;5625;50.122;19.864;2023-07-20T02:17:29;6.73;;;5.00;;
11141;SDS011;5625;50.122;19.864;2023-07-20T02:19:57;5.93;;;5.33;;
11141;SDS011;5625;50.122;19.864;2023-07-20T02:22:26;7.40;;;5.13;;
11141;SDS011;5625;50.122;19.864;2023-07-20T02:24:54;7.43;;;4.80;;
11141;SDS011;5625;50.122;19.864;2023-07-20T02:27:23;7.47;;;5.30;;
11141;SDS011;5625;50.122;19.864;2023-07-20T02:29:51;7.13;;;4.87;;
11141;SDS011;5625;50.122;19.864;2023-07-20T02:32:19;9.80;;;5.00;;
11141;SDS011;5625;50.122;19.864;2023-07-20T02:34:47;6.60;;;4.83;;
11141;SDS011;5625;50.122;19.864;2023-07-20T02:37:15;7.97;;;4.90;;
11141;SDS011;5625;50.122;19.864;2023-07-20T02:39:45;6.23;;;4.60;;
11141;SDS011;5625;50.122;19.864;2023-07-20T02:42:13;8.43;;;4.63;;
11141;SDS011;5625;50.122;19.864;2023-07-20T02:44:41;7.10;;;4.30;;
11141;SDS011;5625;50.122;19.864;2023-07-20T02:47:09;6.13;;;4.10;;
11141;SDS011;5625;50.122;19.864;2023-07-20T02:49:37;5.10;;;4.60;;
11141;SDS011;5625;50.122;19.864;2023-07-20T02:52:05;6.17;;;4.53;;
11141;SDS011;5625;50.122;19.864;2023-07-20T02:54:34;6.63;;;4.23;;
11141;SDS011;5625;50.122;19.864;2023-07-20T02:57:03;6.13;;;4.60;;
11141;SDS011;5625;50.122;19.864;2023-07-20T02:59:32;7.47;;;4.30;;
11141;SDS011;5625;50.122;19.864;2023-07-20T03:02:00;5.90;;;4.27;;
11141;SDS011;5625;50.122;19.864;2023-07-20T03:04:28;5.87;;;4.13;;
11141;SDS011;5625;50.122;19.864;2023-07-20T03:06:56;4.00;;;3.57;;
11141;SDS011;5625;50.122;19.864;2023-07-20T03:09:26;5.47;;;3.80;;
11141;SDS011;5625;50.122;19.864;2023-07-20T03:11:54;4.83;;;3.53;;
11141;SDS011;5625;50.122;19.864;2023-07-20T03:14:23;4.20;;;3.70;;
11141;SDS011;5625;50.122;19.864;2023-07-20T03:16:51;8.20;;;3.73;;
11141;SDS011;5625;50.122;19.864;2023-07-20T03:19:19;4.30;;;3.90;;
11141;SDS011;5625;50.122;19.864;2023-07-20T03:21:47;4.20;;;3.50;;
11141;SDS011;5625;50.122;19.864;2023-07-20T03:24:15;4.27;;;3.30;;
11141;SDS011;5625;50.122;19.864;2023-07-20T03:26:44;5.77;;;3.63;;
11141;SDS011;5625;50.122;19.864;2023-07-20T03:29:12;5.00;;;3.53;;
11141;SDS011;5625;50.122;19.864;2023-07-20T03:31:41;4.80;;;3.33;;
11141;SDS011;5625;50.122;19.864;2023-07-20T03:34:09;3.87;;;3.47;;
11141;SDS011;5625;50.122;19.864;2023-07-20T03:36:41;4.33;;;3.47;;
11141;SDS011;5625;50.122;19.864;2023-07-20T03:39:09;4.60;;;3.50;;
11141;SDS011;5625;50.122;19.864;2023-07-20T03:41:37;3.73;;;3.43;;
11141;SDS011;5625;50.122;19.864;2023-07-20T03:44:05;5.87;;;3.43;;
11141;SDS011;5625;50.122;19.864;2023-07-20T03:46:33;7.00;;;3.90;;
11141;SDS011;5625;50.122;19.864;2023-07-20T03:49:03;4.80;;;3.67;;
11141;SDS011;5625;50.122;19.864;2023-07-20T03:51:32;5.27;;;3.73;;
11141;SDS011;5625;50.122;19.864;2023-07-20T03:54:00;5.10;;;3.90;;
11141;SDS011;5625;50.122;19.864;2023-07-20T03:56:29;4.80;;;3.77;;
11141;SDS011;5625;50.122;19.864;2023-07-20T03:59:00;7.13;;;3.90;;
11141;SDS011;5625;50.122;19.864;2023-07-20T04:01:28;7.63;;;3.53;;
11141;SDS011;5625;50.122;19.864;2023-07-20T04:04:06;4.17;;;3.70;;
11141;SDS011;5625;50.122;19.864;2023-07-20T04:06:35;4.37;;;3.73;;
11141;SDS011;5625;50.122;19.864;2023-07-20T04:09:03;5.63;;;3.90;;
11141;SDS011;5625;50.122;19.864;2023-07-20T04:11:32;8.37;;;4.10;;
11141;SDS011;5625;50.122;19.864;2023-07-20T04:14:00;5.73;;;3.60;;
11141;SDS011;5625;50.122;19.864;2023-07-20T04:18:11;5.00;;;4.30;;
11141;SDS011;5625;50.122;19.864;2023-07-20T04:20:39;4.33;;;3.43;;
11141;SDS011;5625;50.122;19.864;2023-07-20T04:23:08;4.90;;;3.70;;
11141;SDS011;5625;50.122;19.864;2023-07-20T04:25:36;4.43;;;3.10;;
11141;SDS011;5625;50.122;19.864;2023-07-20T04:28:07;6.87;;;3.93;;
11141;SDS011;5625;50.122;19.864;2023-07-20T04:30:37;4.63;;;3.43;;
11141;SDS011;5625;50.122;19.864;2023-07-20T04:33:06;5.43;;;3.80;;
11141;SDS011;5625;50.122;19.864;2023-07-20T04:35:46;5.20;;;4.10;;
11141;SDS011;5625;50.122;19.864;2023-07-20T04:38:15;5.27;;;3.77;;
11141;SDS011;5625;50.122;19.864;2023-07-20T04:40:44;5.13;;;3.83;;
11141;SDS011;5625;50.122;19.864;2023-07-20T04:43:13;5.07;;;3.50;;
11141;SDS011;5625;50.122;19.864;2023-07-20T04:45:41;5.43;;;3.77;;
11141;SDS011;5625;50.122;19.864;2023-07-20T04:48:10;4.47;;;3.53;;
11141;SDS011;5625;50.122;19.864;2023-07-20T04:50:39;3.47;;;3.17;;
11141;SDS011;5625;50.122;19.864;2023-07-20T04:53:09;4.73;;;3.37;;
11141;SDS011;5625;50.122;19.864;2023-07-20T04:55:38;5.40;;;3.30;;
11141;SDS011;5625;50.122;19.864;2023-07-20T04:58:08;4.57;;;3.43;;
11141;SDS011;5625;50.122;19.864;2023-07-20T05:00:37;7.20;;;3.80;;
11141;SDS011;5625;50.122;19.864;2023-07-20T05:03:06;6.70;;;3.77;;
11141;SDS011;5625;50.122;19.864;2023-07-20T05:05:34;4.67;;;4.03;;
11141;SDS011;5625;50.122;19.864;2023-07-20T05:08:03;4.10;;;3.30;;
11141;SDS011;5625;50.122;19.864;2023-07-20T05:10:33;4.20;;;3.00;;
11141;SDS011;5625;50.122;19.864;2023-07-20T05:13:01;4.00;;;3.27;;
11141;SDS011;5625;50.122;19.864;2023-07-20T05:15:29;4.07;;;3.10;;
11141;SDS011;5625;50.122;19.864;2023-07-20T05:17:57;5.87;;;3.40;;
11141;SDS011;5625;50.122;19.864;2023-07-20T05:20:25;3.83;;;3.53;;
11141;SDS011;5625;50.122;19.864;2023-07-20T05:22:53;3.20;;;2.90;;
11141;SDS011;5625;50.122;19.864;2023-07-20T05:25:24;3.20;;;2.83;;
11141;SDS011;5625;50.122;19.864;2023-07-20T05:27:57;5.27;;;3.10;;
11141;SDS011;5625;50.122;19.864;2023-07-20T05:30:25;3.30;;;3.00;;
11141;SDS011;5625;50.122;19.864;2023-07-20T05:32:55;3.37;;;2.90;;
11141;SDS011;5625;50.122;19.864;2023-07-20T05:35:23;4.33;;;3.13;;
11141;SDS011;5625;50.122;19.864;2023-07-20T05:37:52;2.87;;;2.53;;
11141;SDS011;5625;50.122;19.864;2023-07-20T05:40:21;2.87;;;2.60;;
11141;SDS011;5625;50.122;19.864;2023-07-20T05:42:49;3.80;;;2.90;;
11141;SDS011;5625;50.122;19.864;2023-07-20T05:45:19;4.27;;;2.90;;
11141;SDS011;5625;50.122;19.864;2023-07-20T05:47:47;2.63;;;2.43;;
11141;SDS011;5625;50.122;19.864;2023-07-20T05:50:16;4.07;;;2.70;;
11141;SDS011;5625;50.122;19.864;2023-07-20T05:52:44;2.80;;;2.60;;
11141;SDS011;5625;50.122;19.864;2023-07-20T05:55:12;3.37;;;2.63;;
11141;SDS011;5625;50.122;19.864;2023-07-20T05:57:40;3.83;;;2.50;;
11141;SDS011;5625;50.122;19.864;2023-07-20T06:00:10;3.10;;;2.80;;
11141;SDS011;5625;50.122;19.864;2023-07-20T06:02:44;4.07;;;2.60;;
11141;SDS011;5625;50.122;19.864;2023-07-20T06:05:14;4.07;;;2.90;;
11141;SDS011;5625;50.122;19.864;2023-07-20T06:07:42;4.50;;;3.30;;
11141;SDS011;5625;50.122;19.864;2023-07-20T06:10:10;4.83;;;3.23;;
11141;SDS011;5625;50.122;19.864;2023-07-20T06:12:38;3.27;;;2.60;;
11141;SDS011;5625;50.122;19.864;2023-07-20T06:15:23;4.17;;;2.80;;
11141;SDS011;5625;50.122;19.864;2023-07-20T06:17:54;6.27;;;2.97;;
11141;SDS011;5625;50.122;19.864;2023-07-20T06:20:24;4.97;;;2.77;;
11141;SDS011;5625;50.122;19.864;2023-07-20T06:22:52;4.33;;;2.83;;
11141;SDS011;5625;50.122;19.864;2023-07-20T06:25:21;6.77;;;2.83;;
11141;SDS011;5625;50.122;19.864;2023-07-20T06:27:49;7.63;;;2.90;;
11141;SDS011;5625;50.122;19.864;2023-07-20T06:30:18;4.17;;;2.80;;
11141;SDS011;5625;50.122;19.864;2023-07-20T06:32:46;5.83;;;3.00;;
11141;SDS011;5625;50.122;19.864;2023-07-20T06:35:17;5.97;;;2.67;;
11141;SDS011;5625;50.122;19.864;2023-07-20T06:37:45;5.30;;;2.90;;
11141;SDS011;5625;50.122;19.864;2023-07-20T06:40:13;5.17;;;2.80;;
11141;SDS011;5625;50.122;19.864;2023-07-20T06:42:44;3.97;;;2.40;;
11141;SDS011;5625;50.122;19.864;2023-07-20T06:45:15;4.10;;;2.20;;
11141;SDS011;5625;50.122;19.864;2023-07-20T06:47:43;4.67;;;3.00;;
11141;SDS011;5625;50.122;19.864;2023-07-20T06:50:12;4.97;;;2.80;;
11141;SDS011;5625;50.122;19.864;2023-07-20T06:52:45;3.77;;;2.57;;
11141;SDS011;5625;50.122;19.864;2023-07-20T06:55:14;4.00;;;2.63;;
11141;SDS011;5625;50.122;19.864;2023-07-20T06:57:49;3.43;;;2.27;;
11141;SDS011;5625;50.122;19.864;2023-07-20T07:00:18;3.17;;;2.30;;
11141;SDS011;5625;50.122;19.864;2023-07-20T07:02:46;2.83;;;2.13;;
11141;SDS011;5625;50.122;19.864;2023-07-20T07:05:16;3.27;;;2.40;;
11141;SDS011;5625;50.122;19.864;2023-07-20T07:07:48;4.13;;;2.40;;
11141;SDS011;5625;50.122;19.864;2023-07-20T07:10:16;3.93;;;2.20;;
11141;SDS011;5625;50.122;19.864;2023-07-20T07:12:44;4.70;;;2.40;;
11141;SDS011;5625;50.122;19.864;2023-07-20T07:15:13;4.17;;;2.40;;
11141;SDS011;5625;50.122;19.864;2023-07-20T07:17:42;2.73;;;2.20;;
11141;SDS011;5625;50.122;19.864;2023-07-20T07:20:11;4.00;;;2.47;;
11141;SDS011;5625;50.122;19.864;2023-07-20T07:22:49;3.90;;;2.33;;
11141;SDS011;5625;50.122;19.864;2023-07-20T07:25:19;3.47;;;2.20;;
11141;SDS011;5625;50.122;19.864;2023-07-20T07:27:49;4.60;;;2.65;;
11141;SDS011;5625;50.122;19.864;2023-07-20T07:30:18;3.05;;;2.05;;
11141;SDS011;5625;50.122;19.864;2023-07-20T07:32:46;3.38;;;2.40;;
11141;SDS011;5625;50.122;19.864;2023-07-20T07:35:15;5.80;;;2.60;;
11141;SDS011;5625;50.122;19.864;2023-07-20T07:37:45;3.60;;;2.20;;
11141;SDS011;5625;50.122;19.864;2023-07-20T07:40:34;2.75;;;2.05;;
11141;SDS011;5625;50.122;19.864;2023-07-20T07:43:02;3.38;;;2.33;;
11141;SDS011;5625;50.122;19.864;2023-07-20T07:45:33;3.20;;;2.33;;
11141;SDS011;5625;50.122;19.864;2023-07-20T07:48:03;3.00;;;2.40;;
11141;SDS011;5625;50.122;19.864;2023-07-20T07:50:31;3.45;;;2.10;;
11141;SDS011;5625;50.122;19.864;2023-07-20T07:53:00;3.42;;;2.45;;
11141;SDS011;5625;50.122;19.864;2023-07-20T07:55:28;2.25;;;2.00;;
11141;SDS011;5625;50.122;19.864;2023-07-20T07:57:57;3.22;;;2.10;;
11141;SDS011;5625;50.122;19.864;2023-07-20T08:00:25;2.83;;;2.22;;
11141;SDS011;5625;50.122;19.864;2023-07-20T08:02:53;4.85;;;2.47;;
11141;SDS011;5625;50.122;19.864;2023-07-20T08:05:22;3.13;;;2.15;;
11141;SDS011;5625;50.122;19.864;2023-07-20T08:07:50;4.72;;;2.28;;
11141;SDS011;5625;50.122;19.864;2023-07-20T08:10:18;2.60;;;2.40;;
11141;SDS011;5625;50.122;19.864;2023-07-20T08:12:46;4.03;;;2.58;;
11141;SDS011;5625;50.122;19.864;2023-07-20T08:15:16;3.28;;;1.90;;
11141;SDS011;5625;50.122;19.864;2023-07-20T08:17:44;3.15;;;2.17;;
11141;SDS011;5625;50.122;19.864;2023-07-20T08:20:12;2.40;;;2.10;;
11141;SDS011;5625;50.122;19.864;2023-07-20T08:22:43;2.60;;;1.65;;
11141;SDS011;5625;50.122;19.864;2023-07-20T08:25:14;1.98;;;1.80;;
11141;SDS011;5625;50.122;19.864;2023-07-20T08:27:42;3.15;;;1.83;;
11141;SDS011;5625;50.122;19.864;2023-07-20T08:30:12;3.15;;;2.08;;
11141;SDS011;5625;50.122;19.864;2023-07-20T08:32:42;2.47;;;1.92;;
11141;SDS011;5625;50.122;19.864;2023-07-20T08:35:10;2.70;;;2.08;;
11141;SDS011;5625;50.122;19.864;2023-07-20T08:37:41;4.57;;;2.05;;
11141;SDS011;5625;50.122;19.864;2023-07-20T08:40:12;2.25;;;1.80;;
11141;SDS011;5625;50.122;19.864;2023-07-20T08:42:41;5.47;;;2.15;;
11141;SDS011;5625;50.122;19.864;2023-07-20T08:45:11;3.90;;;2.08;;
11141;SDS011;5625;50.122;19.864;2023-07-20T08:47:42;2.45;;;1.67;;
11141;SDS011;5625;50.122;19.864;2023-07-20T08:50:12;3.60;;;1.90;;
11141;SDS011;5625;50.122;19.864;2023-07-20T08:52:42;2.50;;;1.90;;
11141;SDS011;5625;50.122;19.864;2023-07-20T08:55:10;1.90;;;1.70;;
11141;SDS011;5625;50.122;19.864;2023-07-20T08:57:38;2.83;;;1.50;;
11141;SDS011;5625;50.122;19.864;2023-07-20T09:00:09;2.22;;;1.85;;
11141;SDS011;5625;50.122;19.864;2023-07-20T09:02:42;2.13;;;1.80;;
11141;SDS011;5625;50.122;19.864;2023-07-20T09:05:13;2.20;;;1.92;;
11141;SDS011;5625;50.122;19.864;2023-07-20T09:07:41;2.22;;;1.90;;
11141;SDS011;5625;50.122;19.864;2023-07-20T09:10:10;3.13;;;1.75;;
11141;SDS011;5625;50.122;19.864;2023-07-20T09:12:40;1.83;;;1.73;;
11141;SDS011;5625;50.122;19.864;2023-07-20T09:15:09;1.90;;;1.55;;
11141;SDS011;5625;50.122;19.864;2023-07-20T09:17:39;2.65;;;1.50;;
11141;SDS011;5625;50.122;19.864;2023-07-20T09:20:14;1.45;;;1.35;;
11141;SDS011;5625;50.122;19.864;2023-07-20T09:22:48;1.75;;;1.50;;
11141;SDS011;5625;50.122;19.864;2023-07-20T09:25:19;2.35;;;1.33;;
11141;SDS011;5625;50.122;19.864;2023-07-20T09:27:48;2.30;;;1.20;;
11141;SDS011;5625;50.122;19.864;2023-07-20T09:30:18;2.10;;;1.40;;
11141;SDS011;5625;50.122;19.864;2023-07-20T09:32:56;3.55;;;1.50;;
11141;SDS011;5625;50.122;19.864;2023-07-20T09:35:26;2.45;;;1.38;;
11141;SDS011;5625;50.122;19.864;2023-07-20T09:38:06;2.05;;;1.48;;
11141;SDS011;5625;50.122;19.864;2023-07-20T09:40:38;2.70;;;1.50;;
11141;SDS011;5625;50.122;19.864;2023-07-20T09:43:13;2.38;;;1.50;;
11141;SDS011;5625;50.122;19.864;2023-07-20T09:45:46;3.03;;;1.52;;
11141;SDS011;5625;50.122;19.864;2023-07-20T09:48:23;2.35;;;1.40;;
11141;SDS011;5625;50.122;19.864;2023-07-20T09:50:56;1.95;;;1.42;;
11141;SDS011;5625;50.122;19.864;2023-07-20T09:53:25;3.05;;;1.50;;
11141;SDS011;5625;50.122;19.864;2023-07-20T09:55:54;2.33;;;1.55;;
11141;SDS011;5625;50.122;19.864;2023-07-20T09:58:23;1.50;;;1.40;;
11141;SDS011;5625;50.122;19.864;2023-07-20T10:00:54;2.17;;;1.50;;
11141;SDS011;5625;50.122;19.864;2023-07-20T10:03:26;1.95;;;1.60;;
11141;SDS011;5625;50.122;19.864;2023-07-20T10:06:03;1.48;;;1.38;;
11141;SDS011;5625;50.122;19.864;2023-07-20T10:08:34;1.88;;;1.30;;
11141;SDS011;5625;50.122;19.864;2023-07-20T10:11:18;1.85;;;1.35;;
11141;SDS011;5625;50.122;19.864;2023-07-20T10:13:49;1.67;;;1.50;;
11141;SDS011;5625;50.122;19.864;2023-07-20T10:16:22;1.98;;;1.40;;
11141;SDS011;5625;50.122;19.864;2023-07-20T10:18:55;2.28;;;1.40;;
11141;SDS011;5625;50.122;19.864;2023-07-20T10:21:30;1.50;;;1.20;;
11141;SDS011;5625;50.122;19.864;2023-07-20T10:24:06;2.33;;;1.40;;
11141;SDS011;5625;50.122;19.864;2023-07-20T10:26:37;1.38;;;1.27;;
11141;SDS011;5625;50.122;19.864;2023-07-20T10:29:07;1.88;;;1.20;;
11141;SDS011;5625;50.122;19.864;2023-07-20T10:31:36;1.88;;;1.30;;
11141;SDS011;5625;50.122;19.864;2023-07-20T10:34:05;1.27;;;1.17;;
11141;SDS011;5625;50.122;19.864;2023-07-20T10:36:35;1.40;;;1.30;;
11141;SDS011;5625;50.122;19.864;2023-07-20T10:39:21;1.52;;;1.42;;
11141;SDS011;5625;50.122;19.864;2023-07-20T10:41:57;3.47;;;1.80;;
11141;SDS011;5625;50.122;19.864;2023-07-20T10:44:30;4.70;;;2.10;;
11141;SDS011;5625;50.122;19.864;2023-07-20T10:46:59;1.67;;;1.58;;
11141;SDS011;5625;50.122;19.864;2023-07-20T10:49:32;2.85;;;1.50;;
11141;SDS011;5625;50.122;19.864;2023-07-20T10:52:05;2.83;;;1.70;;
11141;SDS011;5625;50.122;19.864;2023-07-20T10:54:47;3.13;;;1.75;;
11141;SDS011;5625;50.122;19.864;2023-07-20T10:57:22;1.70;;;1.60;;
11141;SDS011;5625;50.122;19.864;2023-07-20T11:02:49;1.92;;;1.73;;
11141;SDS011;5625;50.122;19.864;2023-07-20T11:05:33;4.43;;;2.00;;
11141;SDS011;5625;50.122;19.864;2023-07-20T11:08:05;2.38;;;2.17;;
11141;SDS011;5625;50.122;19.864;2023-07-20T11:10:36;2.60;;;2.00;;
11141;SDS011;5625;50.122;19.864;2023-07-20T11:13:17;3.53;;;2.22;;
11141;SDS011;5625;50.122;19.864;2023-07-20T11:18:38;2.83;;;2.28;;
11141;SDS011;5625;50.122;19.864;2023-07-20T11:21:08;2.72;;;2.28;;
11141;SDS011;5625;50.122;19.864;2023-07-20T11:23:39;4.53;;;2.40;;
11141;SDS011;5625;50.122;19.864;2023-07-20T11:26:07;4.55;;;2.40;;
11141;SDS011;5625;50.122;19.864;2023-07-20T11:28:36;4.15;;;2.70;;
11141;SDS011;5625;50.122;19.864;2023-07-20T11:31:04;3.47;;;2.35;;
11141;SDS011;5625;50.122;19.864;2023-07-20T11:33:32;2.58;;;2.38;;
11141;SDS011;5625;50.122;19.864;2023-07-20T11:36:00;3.20;;;2.75;;
11141;SDS011;5625;50.122;19.864;2023-07-20T11:38:50;2.95;;;2.35;;
11141;SDS011;5625;50.122;19.864;2023-07-20T11:41:22;3.17;;;2.60;;
11141;SDS011;5625;50.122;19.864;2023-07-20T11:43:50;3.25;;;2.90;;
11141;SDS011;5625;50.122;19.864;2023-07-20T11:46:18;4.03;;;2.53;;
11141;SDS011;5625;50.122;19.864;2023-07-20T11:48:46;3.75;;;2.50;;
11141;SDS011;5625;50.122;19.864;2023-07-20T11:51:15;3.50;;;3.03;;
11141;SDS011;5625;50.122;19.864;2023-07-20T11:53:44;3.20;;;2.80;;
11141;SDS011;5625;50.122;19.864;2023-07-20T11:56:15;4.35;;;2.17;;
11141;SDS011;5625;50.122;19.864;2023-07-20T11:58:43;2.88;;;2.67;;
11141;SDS011;5625;50.122;19.864;2023-07-20T12:01:12;2.75;;;2.40;;
11141;SDS011;5625;50.122;19.864;2023-07-20T12:03:41;4.00;;;2.50;;
11141;SDS011;5625;50.122;19.864;2023-07-20T12:06:10;3.72;;;2.65;;
11141;SDS011;5625;50.122;19.864;2023-07-20T12:08:38;5.05;;;2.67;;
11141;SDS011;5625;50.122;19.864;2023-07-20T12:11:07;2.55;;;2.35;;
11141;SDS011;5625;50.122;19.864;2023-07-20T12:13:38;2.65;;;2.45;;
11141;SDS011;5625;50.122;19.864;2023-07-20T12:16:10;3.30;;;2.67;;
11141;SDS011;5625;50.122;19.864;2023-07-20T12:18:39;2.72;;;2.42;;
11141;SDS011;5625;50.122;19.864;2023-07-20T12:21:10;2.53;;;2.33;;
11141;SDS011;5625;50.122;19.864;2023-07-20T12:23:39;3.35;;;2.15;;
11141;SDS011;5625;50.122;19.864;2023-07-20T12:26:10;2.53;;;2.10;;
11141;SDS011;5625;50.122;19.864;2023-07-20T12:28:40;2.95;;;2.03;;
11141;SDS011;5625;50.122;19.864;2023-07-20T12:31:09;2.13;;;1.92;;
11141;SDS011;5625;50.122;19.864;2023-07-20T12:33:37;2.33;;;1.77;;
11141;SDS011;5625;50.122;19.864;2023-07-20T12:36:05;2.42;;;1.90;;
11141;SDS011;5625;50.122;19.864;2023-07-20T12:38:33;2.53;;;1.95;;
11141;SDS011;5625;50.122;19.864;2023-07-20T12:41:02;3.30;;;2.10;;
11141;SDS011;5625;50.122;19.864;2023-07-20T12:43:30;3.05;;;2.03;;
11141;SDS011;5625;50.122;19.864;2023-07-20T12:46:00;2.80;;;1.70;;
11141;SDS011;5625;50.122;19.864;2023-07-20T12:48:29;1.88;;;1.70;;
11141;SDS011;5625;50.122;19.864;2023-07-20T12:50:57;2.28;;;2.00;;
11141;SDS011;5625;50.122;19.864;2023-07-20T12:53:27;2.78;;;1.63;;
11141;SDS011;5625;50.122;19.864;2023-07-20T12:55:55;2.42;;;1.75;;
11141;SDS011;5625;50.122;19.864;2023-07-20T12:58:24;2.38;;;1.75;;
11141;SDS011;5625;50.122;19.864;2023-07-20T13:00:52;1.40;;;1.30;;
11141;SDS011;5625;50.122;19.864;2023-07-20T13:03:21;1.83;;;1.73;;
11141;SDS011;5625;50.122;19.864;2023-07-20T13:05:52;2.40;;;1.70;;
11141;SDS011;5625;50.122;19.864;2023-07-20T13:08:23;2.20;;;1.70;;
11141;SDS011;5625;50.122;19.864;2023-07-20T13:10:53;2.47;;;1.70;;
11141;SDS011;5625;50.122;19.864;2023-07-20T13:13:21;2.72;;;1.67;;
11141;SDS011;5625;50.122;19.864;2023-07-20T13:15:49;2.42;;;1.35;;
11141;SDS011;5625;50.122;19.864;2023-07-20T13:18:17;1.77;;;1.45;;
11141;SDS011;5625;50.122;19.864;2023-07-20T13:20:47;1.88;;;1.70;;
11141;SDS011;5625;50.122;19.864;2023-07-20T13:23:15;3.20;;;1.98;;
11141;SDS011;5625;50.122;19.864;2023-07-20T13:25:43;3.75;;;1.65;;
11141;SDS011;5625;50.122;19.864;2023-07-20T13:28:11;2.00;;;1.80;;
11141;SDS011;5625;50.122;19.864;2023-07-20T13:30:39;1.90;;;1.75;;
11141;SDS011;5625;50.122;19.864;2023-07-20T13:33:07;2.58;;;1.95;;
11141;SDS011;5625;50.122;19.864;2023-07-20T13:35:46;2.17;;;1.90;;
11141;SDS011;5625;50.122;19.864;2023-07-20T13:38:15;2.85;;;2.10;;
11141;SDS011;5625;50.122;19.864;2023-07-20T13:40:43;2.55;;;1.83;;
11141;SDS011;5625;50.122;19.864;2023-07-20T13:43:11;2.75;;;1.70;;
11141;SDS011;5625;50.122;19.864;2023-07-20T13:45:39;1.73;;;1.63;;
11141;SDS011;5625;50.122;19.864;2023-07-20T13:48:08;2.30;;;1.70;;
11141;SDS011;5625;50.122;19.864;2023-07-20T13:50:36;3.08;;;2.00;;
11141;SDS011;5625;50.122;19.864;2023-07-20T13:53:25;1.98;;;1.85;;
11141;SDS011;5625;50.122;19.864;2023-07-20T13:55:58;4.88;;;1.70;;
11141;SDS011;5625;50.122;19.864;2023-07-20T13:58:29;3.92;;;1.65;;
11141;SDS011;5625;50.122;19.864;2023-07-20T14:00:57;1.60;;;1.50;;
11141;SDS011;5625;50.122;19.864;2023-07-20T14:03:25;1.77;;;1.67;;
11141;SDS011;5625;50.122;19.864;2023-07-20T14:05:53;2.00;;;1.33;;
11141;SDS011;5625;50.122;19.864;2023-07-20T14:08:27;1.77;;;1.42;;
11141;SDS011;5625;50.122;19.864;2023-07-20T14:10:56;1.88;;;1.33;;
11141;SDS011;5625;50.122;19.864;2023-07-20T14:13:27;3.38;;;1.45;;
11141;SDS011;5625;50.122;19.864;2023-07-20T14:16:12;3.60;;;1.42;;
11141;SDS011;5625;50.122;19.864;2023-07-20T14:18:41;2.00;;;1.35;;
11141;SDS011;5625;50.122;19.864;2023-07-20T14:21:11;1.95;;;1.20;;
11141;SDS011;5625;50.122;19.864;2023-07-20T14:23:44;1.95;;;0.98;;
11141;SDS011;5625;50.122;19.864;2023-07-20T14:26:13;1.42;;;0.98;;
11141;SDS011;5625;50.122;19.864;2023-07-20T14:28:41;0.90;;;0.90;;
11141;SDS011;5625;50.122;19.864;2023-07-20T14:31:09;0.82;;;0.73;;
11141;SDS011;5625;50.122;19.864;2023-07-20T14:33:40;3.63;;;1.00;;
11141;SDS011;5625;50.122;19.864;2023-07-20T14:36:09;3.00;;;0.80;;
11141;SDS011;5625;50.122;19.864;2023-07-20T14:38:37;2.00;;;1.00;;
11141;SDS011;5625;50.122;19.864;2023-07-20T14:41:08;1.10;;;1.00;;
11141;SDS011;5625;50.122;19.864;2023-07-20T14:43:40;1.88;;;0.95;;
11141;SDS011;5625;50.122;19.864;2023-07-20T14:46:11;1.58;;;1.00;;
11141;SDS011;5625;50.122;19.864;2023-07-20T14:48:39;0.98;;;0.90;;
11141;SDS011;5625;50.122;19.864;2023-07-20T14:51:10;1.27;;;1.17;;
11141;SDS011;5625;50.122;19.864;2023-07-20T14:53:38;2.15;;;1.13;;
11141;SDS011;5625;50.122;19.864;2023-07-20T14:56:08;1.50;;;0.95;;
11141;SDS011;5625;50.122;19.864;2023-07-20T14:58:36;3.10;;;1.17;;
11141;SDS011;5625;50.122;19.864;2023-07-20T15:01:04;1.25;;;1.25;;
11141;SDS011;5625;50.122;19.864;2023-07-20T15:03:32;3.22;;;1.20;;
11141;SDS011;5625;50.122;19.864;2023-07-20T15:06:01;3.92;;;1.23;;
11141;SDS011;5625;50.122;19.864;2023-07-20T15:08:30;1.60;;;1.40;;
11141;SDS011;5625;50.122;19.864;2023-07-20T15:10:58;1.60;;;1.20;;
11141;SDS011;5625;50.122;19.864;2023-07-20T15:13:27;1.10;;;1.10;;
11141;SDS011;5625;50.122;19.864;2023-07-20T15:15:56;1.70;;;1.30;;